sensor_id;sensor_type;location;lat;lon;timestamp;temperature;humidity
10583;DHT22;33679;51.218;6.786;2022-07-12T00:01:11;22.10;99.90
10583;DHT22;33679;51.218;6.786;2022-07-12T00:03:38;22.10;99.90
10583;DHT22;33679;51.218;6.786;2022-07-12T00:06:05;22.10;99.90
10583;DHT22;33679;51.218;6.786;2022-07-12T00:08:34;22.10;99.90
10583;DHT22;33679;51.218;6.786;2022-07-12T00:11:01;22.10;99.90
10583;DHT22;33679;51.218;6.786;2022-07-12T00:13:28;22.00;99.90
10583;DHT22;33679;51.218;6.786;2022-07-12T00:15:56;22.00;99.90
10583;DHT22;33679;51.218;6.786;2022-07-12T00:18:23;22.00;99.90
10583;DHT22;33679;51.218;6.786;2022-07-12T00:20:50;21.90;99.90
10583;DHT22;33679;51.218;6.786;2022-07-12T00:23:17;21.90;99.90
10583;DHT22;33679;51.218;6.786;2022-07-12T00:25:46;21.90;99.90
10583;DHT22;33679;51.218;6.786;2022-07-12T00:28:13;21.80;99.90
10583;DHT22;33679;51.218;6.786;2022-07-12T00:30:40;21.80;99.90
10583;DHT22;33679;51.218;6.786;2022-07-12T00:33:07;21.70;99.90
10583;DHT22;33679;51.218;6.786;2022-07-12T00:35:35;21.70;99.90
10583;DHT22;33679;51.218;6.786;2022-07-12T00:38:02;21.70;99.90
10583;DHT22;33679;51.218;6.786;2022-07-12T00:40:29;21.60;99.90
10583;DHT22;33679;51.218;6.786;2022-07-12T00:42:57;21.60;99.90
10583;DHT22;33679;51.218;6.786;2022-07-12T00:45:24;21.60;99.90
10583;DHT22;33679;51.218;6.786;2022-07-12T00:47:53;21.60;99.90
10583;DHT22;33679;51.218;6.786;2022-07-12T00:50:21;21.50;99.90
10583;DHT22;33679;51.218;6.786;2022-07-12T00:52:48;21.50;99.90
10583;DHT22;33679;51.218;6.786;2022-07-12T00:55:16;21.50;99.90
10583;DHT22;33679;51.218;6.786;2022-07-12T00:57:44;21.40;99.90
10583;DHT22;33679;51.218;6.786;2022-07-12T01:00:15;21.40;99.90
10583;DHT22;33679;51.218;6.786;2022-07-12T01:02:42;21.40;99.90
10583;DHT22;33679;51.218;6.786;2022-07-12T01:05:10;21.30;99.90
10583;DHT22;33679;51.218;6.786;2022-07-12T01:07:37;21.30;99.90
10583;DHT22;33679;51.218;6.786;2022-07-12T01:10:05;21.20;99.90
10583;DHT22;33679;51.218;6.786;2022-07-12T01:12:33;21.20;99.90
10583;DHT22;33679;51.218;6.786;2022-07-12T01:15:00;21.20;99.90
10583;DHT22;33679;51.218;6.786;2022-07-12T01:17:29;21.10;99.90
10583;DHT22;33679;51.218;6.786;2022-07-12T01:19:56;21.10;99.90
10583;DHT22;33679;51.218;6.786;2022-07-12T01:22:26;21.10;99.90
10583;DHT22;33679;51.218;6.786;2022-07-12T01:24:54;21.00;99.90
10583;DHT22;33679;51.218;6.786;2022-07-12T01:27:22;21.00;99.90
10583;DHT22;33679;51.218;6.786;2022-07-12T01:29:49;21.00;99.90
10583;DHT22;33679;51.218;6.786;2022-07-12T01:32:16;21.00;99.90
10583;DHT22;33679;51.218;6.786;2022-07-12T01:34:54;20.90;99.90
10583;DHT22;33679;51.218;6.786;2022-07-12T01:37:22;20.90;99.90
10583;DHT22;33679;51.218;6.786;2022-07-12T01:39:50;20.90;99.90
10583;DHT22;33679;51.218;6.786;2022-07-12T01:42:19;20.80;99.90
10583;DHT22;33679;51.218;6.786;2022-07-12T01:44:47;20.80;99.90
10583;DHT22;33679;51.218;6.786;2022-07-12T01:47:15;20.80;99.90
10583;DHT22;33679;51.218;6.786;2022-07-12T01:49:42;20.80;99.90
10583;DHT22;33679;51.218;6.786;2022-07-12T01:52:09;20.80;99.90
10583;DHT22;33679;51.218;6.786;2022-07-12T01:54:36;20.80;99.90
10583;DHT22;33679;51.218;6.786;2022-07-12T01:57:04;20.80;99.90
10583;DHT22;33679;51.218;6.786;2022-07-12T01:59:32;20.80;99.90
10583;DHT22;33679;51.218;6.786;2022-07-12T02:02:00;20.70;99.90
10583;DHT22;33679;51.218;6.786;2022-07-12T02:04:27;20.70;99.90
10583;DHT22;33679;51.218;6.786;2022-07-12T02:06:55;20.70;99.90
10583;DHT22;33679;51.218;6.786;2022-07-12T02:09:22;20.70;99.90
10583;DHT22;33679;51.218;6.786;2022-07-12T02:11:49;20.60;99.90
10583;DHT22;33679;51.218;6.786;2022-07-12T02:14:17;20.60;99.90
10583;DHT22;33679;51.218;6.786;2022-07-12T02:16:45;20.60;99.90
10583;DHT22;33679;51.218;6.786;2022-07-12T02:19:12;20.60;99.90
10583;DHT22;33679;51.218;6.786;2022-07-12T02:21:40;20.60;99.90
10583;DHT22;33679;51.218;6.786;2022-07-12T02:24:07;20.60;99.90
10583;DHT22;33679;51.218;6.786;2022-07-12T02:26:35;20.50;99.90
10583;DHT22;33679;51.218;6.786;2022-07-12T02:29:02;20.50;99.90
10583;DHT22;33679;51.218;6.786;2022-07-12T02:31:29;20.50;99.90
10583;DHT22;33679;51.218;6.786;2022-07-12T02:33:58;20.50;99.90
10583;DHT22;33679;51.218;6.786;2022-07-12T02:36:25;20.50;99.90
10583;DHT22;33679;51.218;6.786;2022-07-12T02:38:52;20.50;99.90
10583;DHT22;33679;51.218;6.786;2022-07-12T02:41:19;20.50;99.90
10583;DHT22;33679;51.218;6.786;2022-07-12T02:43:46;20.40;99.90
10583;DHT22;33679;51.218;6.786;2022-07-12T02:46:14;20.40;99.90
10583;DHT22;33679;51.218;6.786;2022-07-12T02:48:41;20.40;99.90
10583;DHT22;33679;51.218;6.786;2022-07-12T02:51:12;20.40;99.90
10583;DHT22;33679;51.218;6.786;2022-07-12T02:53:39;20.40;99.90
10583;DHT22;33679;51.218;6.786;2022-07-12T02:56:08;20.40;99.90
10583;DHT22;33679;51.218;6.786;2022-07-12T02:58:35;20.40;99.90
10583;DHT22;33679;51.218;6.786;2022-07-12T03:01:03;20.40;99.90
10583;DHT22;33679;51.218;6.786;2022-07-12T03:03:30;20.40;99.90
10583;DHT22;33679;51.218;6.786;2022-07-12T03:05:57;20.40;99.90
10583;DHT22;33679;51.218;6.786;2022-07-12T03:08:26;20.40;99.90
10583;DHT22;33679;51.218;6.786;2022-07-12T03:10:53;20.40;99.90
10583;DHT22;33679;51.218;6.786;2022-07-12T03:13:20;20.30;99.90
10583;DHT22;33679;51.218;6.786;2022-07-12T03:15:47;20.30;99.90
10583;DHT22;33679;51.218;6.786;2022-07-12T03:18:15;20.30;99.90
10583;DHT22;33679;51.218;6.786;2022-07-12T03:20:42;20.30;99.90
10583;DHT22;33679;51.218;6.786;2022-07-12T03:23:09;20.20;99.90
10583;DHT22;33679;51.218;6.786;2022-07-12T03:25:38;20.20;99.90
10583;DHT22;33679;51.218;6.786;2022-07-12T03:28:05;20.20;99.90
10583;DHT22;33679;51.218;6.786;2022-07-12T03:30:32;20.20;99.90
10583;DHT22;33679;51.218;6.786;2022-07-12T03:32:59;20.10;99.90
10583;DHT22;33679;51.218;6.786;2022-07-12T03:35:26;20.10;99.90
10583;DHT22;33679;51.218;6.786;2022-07-12T03:37:53;20.10;99.90
10583;DHT22;33679;51.218;6.786;2022-07-12T03:40:20;20.10;99.90
10583;DHT22;33679;51.218;6.786;2022-07-12T03:42:49;20.00;99.90
10583;DHT22;33679;51.218;6.786;2022-07-12T03:45:16;20.00;99.90
10583;DHT22;33679;51.218;6.786;2022-07-12T03:47:44;20.00;99.90
10583;DHT22;33679;51.218;6.786;2022-07-12T03:50:11;20.00;99.90
10583;DHT22;33679;51.218;6.786;2022-07-12T03:52:40;20.00;99.90
10583;DHT22;33679;51.218;6.786;2022-07-12T03:55:08;20.00;99.90
10583;DHT22;33679;51.218;6.786;2022-07-12T03:57:35;20.10;99.90
10583;DHT22;33679;51.218;6.786;2022-07-12T04:00:05;20.00;99.90
10583;DHT22;33679;51.218;6.786;2022-07-12T04:02:34;20.00;99.90
10583;DHT22;33679;51.218;6.786;2022-07-12T04:05:01;20.00;99.90
10583;DHT22;33679;51.218;6.786;2022-07-12T04:07:28;20.00;99.90
10583;DHT22;33679;51.218;6.786;2022-07-12T04:09:55;20.00;99.90
10583;DHT22;33679;51.218;6.786;2022-07-12T04:12:24;20.00;99.90
10583;DHT22;33679;51.218;6.786;2022-07-12T04:14:51;20.00;99.90
10583;DHT22;33679;51.218;6.786;2022-07-12T04:17:20;20.00;99.90
10583;DHT22;33679;51.218;6.786;2022-07-12T04:19:46;20.00;99.90
10583;DHT22;33679;51.218;6.786;2022-07-12T04:22:13;20.00;99.90
10583;DHT22;33679;51.218;6.786;2022-07-12T04:24:40;20.00;99.90
10583;DHT22;33679;51.218;6.786;2022-07-12T04:27:07;20.10;99.90
10583;DHT22;33679;51.218;6.786;2022-07-12T04:29:34;20.10;99.90
10583;DHT22;33679;51.218;6.786;2022-07-12T04:32:01;20.10;99.90
10583;DHT22;33679;51.218;6.786;2022-07-12T04:34:29;20.20;99.90
10583;DHT22;33679;51.218;6.786;2022-07-12T04:36:56;20.20;99.90
10583;DHT22;33679;51.218;6.786;2022-07-12T04:39:23;20.20;99.90
10583;DHT22;33679;51.218;6.786;2022-07-12T04:41:56;20.30;99.90
10583;DHT22;33679;51.218;6.786;2022-07-12T04:44:23;20.30;99.90
10583;DHT22;33679;51.218;6.786;2022-07-12T04:46:50;20.40;99.90
10583;DHT22;33679;51.218;6.786;2022-07-12T04:49:17;20.40;99.90
10583;DHT22;33679;51.218;6.786;2022-07-12T04:51:46;20.50;99.90
10583;DHT22;33679;51.218;6.786;2022-07-12T04:54:13;20.50;99.90
10583;DHT22;33679;51.218;6.786;2022-07-12T04:56:40;20.60;99.90
10583;DHT22;33679;51.218;6.786;2022-07-12T04:59:07;20.60;99.90
10583;DHT22;33679;51.218;6.786;2022-07-12T05:01:36;20.70;99.90
10583;DHT22;33679;51.218;6.786;2022-07-12T05:04:03;20.70;99.90
10583;DHT22;33679;51.218;6.786;2022-07-12T05:06:30;20.80;99.90
10583;DHT22;33679;51.218;6.786;2022-07-12T05:08:58;20.80;99.90
10583;DHT22;33679;51.218;6.786;2022-07-12T05:11:25;20.80;99.90
10583;DHT22;33679;51.218;6.786;2022-07-12T05:13:53;20.80;99.90
10583;DHT22;33679;51.218;6.786;2022-07-12T05:16:23;20.90;99.90
10583;DHT22;33679;51.218;6.786;2022-07-12T05:18:50;21.00;99.90
10583;DHT22;33679;51.218;6.786;2022-07-12T05:21:17;21.00;99.90
10583;DHT22;33679;51.218;6.786;2022-07-12T05:23:44;21.10;99.90
10583;DHT22;33679;51.218;6.786;2022-07-12T05:26:15;21.10;99.90
10583;DHT22;33679;51.218;6.786;2022-07-12T05:28:42;21.10;99.90
10583;DHT22;33679;51.218;6.786;2022-07-12T05:31:09;21.10;99.90
10583;DHT22;33679;51.218;6.786;2022-07-12T05:33:36;21.10;99.90
10583;DHT22;33679;51.218;6.786;2022-07-12T05:36:03;21.20;99.90
10583;DHT22;33679;51.218;6.786;2022-07-12T05:38:30;21.20;99.90
10583;DHT22;33679;51.218;6.786;2022-07-12T05:40:57;21.20;99.90
10583;DHT22;33679;51.218;6.786;2022-07-12T05:43:26;21.20;99.90
10583;DHT22;33679;51.218;6.786;2022-07-12T05:45:53;21.30;99.90
10583;DHT22;33679;51.218;6.786;2022-07-12T05:48:20;21.40;99.90
10583;DHT22;33679;51.218;6.786;2022-07-12T05:50:47;21.50;99.90
10583;DHT22;33679;51.218;6.786;2022-07-12T05:53:14;21.90;99.90
10583;DHT22;33679;51.218;6.786;2022-07-12T05:55:49;22.60;99.90
10583;DHT22;33679;51.218;6.786;2022-07-12T05:58:17;23.60;99.90
10583;DHT22;33679;51.218;6.786;2022-07-12T06:00:45;24.30;99.90
10583;DHT22;33679;51.218;6.786;2022-07-12T06:03:13;24.90;99.90
10583;DHT22;33679;51.218;6.786;2022-07-12T06:05:40;25.60;99.90
10583;DHT22;33679;51.218;6.786;2022-07-12T06:08:07;26.30;99.90
10583;DHT22;33679;51.218;6.786;2022-07-12T06:10:37;26.80;99.90
10583;DHT22;33679;51.218;6.786;2022-07-12T06:13:04;27.00;99.90
10583;DHT22;33679;51.218;6.786;2022-07-12T06:15:31;27.00;99.90
10583;DHT22;33679;51.218;6.786;2022-07-12T06:18:02;27.00;99.90
10583;DHT22;33679;51.218;6.786;2022-07-12T06:20:29;27.10;99.90
10583;DHT22;33679;51.218;6.786;2022-07-12T06:22:57;27.20;99.90
10583;DHT22;33679;51.218;6.786;2022-07-12T06:25:24;27.10;99.90
10583;DHT22;33679;51.218;6.786;2022-07-12T06:27:51;26.90;99.90
10583;DHT22;33679;51.218;6.786;2022-07-12T06:30:18;26.60;99.90
10583;DHT22;33679;51.218;6.786;2022-07-12T06:32:46;26.40;99.90
10583;DHT22;33679;51.218;6.786;2022-07-12T06:35:16;26.30;99.90
10583;DHT22;33679;51.218;6.786;2022-07-12T06:37:45;26.10;99.90
10583;DHT22;33679;51.218;6.786;2022-07-12T06:40:12;26.00;99.90
10583;DHT22;33679;51.218;6.786;2022-07-12T06:42:42;25.90;99.90
10583;DHT22;33679;51.218;6.786;2022-07-12T06:45:10;25.80;99.90
10583;DHT22;33679;51.218;6.786;2022-07-12T06:47:37;25.60;99.90
10583;DHT22;33679;51.218;6.786;2022-07-12T06:50:05;25.40;99.90
10583;DHT22;33679;51.218;6.786;2022-07-12T06:52:37;25.20;99.90
10583;DHT22;33679;51.218;6.786;2022-07-12T06:55:05;25.20;99.90
10583;DHT22;33679;51.218;6.786;2022-07-12T06:57:32;25.10;99.90
10583;DHT22;33679;51.218;6.786;2022-07-12T06:59:59;25.10;99.90
10583;DHT22;33679;51.218;6.786;2022-07-12T07:02:26;25.00;99.90
10583;DHT22;33679;51.218;6.786;2022-07-12T07:04:53;24.90;99.90
10583;DHT22;33679;51.218;6.786;2022-07-12T07:07:20;24.90;99.90
10583;DHT22;33679;51.218;6.786;2022-07-12T07:09:48;24.80;99.90
10583;DHT22;33679;51.218;6.786;2022-07-12T07:12:17;24.70;99.90
10583;DHT22;33679;51.218;6.786;2022-07-12T07:14:44;24.70;99.90
10583;DHT22;33679;51.218;6.786;2022-07-12T07:17:11;24.60;99.90
10583;DHT22;33679;51.218;6.786;2022-07-12T07:19:38;24.60;99.90
10583;DHT22;33679;51.218;6.786;2022-07-12T07:22:05;24.60;99.90
10583;DHT22;33679;51.218;6.786;2022-07-12T07:24:32;24.60;99.90
10583;DHT22;33679;51.218;6.786;2022-07-12T07:27:04;24.60;99.90
10583;DHT22;33679;51.218;6.786;2022-07-12T07:29:32;24.70;99.90
10583;DHT22;33679;51.218;6.786;2022-07-12T07:32:17;24.70;99.90
10583;DHT22;33679;51.218;6.786;2022-07-12T07:34:44;24.60;99.90
10583;DHT22;33679;51.218;6.786;2022-07-12T07:37:12;24.60;99.90
10583;DHT22;33679;51.218;6.786;2022-07-12T07:39:40;24.60;99.90
10583;DHT22;33679;51.218;6.786;2022-07-12T07:42:08;24.60;99.90
10583;DHT22;33679;51.218;6.786;2022-07-12T07:44:38;24.60;99.90
10583;DHT22;33679;51.218;6.786;2022-07-12T07:47:06;24.70;99.90
10583;DHT22;33679;51.218;6.786;2022-07-12T07:49:32;24.70;99.90
10583;DHT22;33679;51.218;6.786;2022-07-12T07:52:00;24.80;99.90
10583;DHT22;33679;51.218;6.786;2022-07-12T07:54:30;24.70;99.90
10583;DHT22;33679;51.218;6.786;2022-07-12T07:57:00;24.70;99.90
10583;DHT22;33679;51.218;6.786;2022-07-12T07:59:28;24.60;99.90
10583;DHT22;33679;51.218;6.786;2022-07-12T08:01:56;24.60;99.90
10583;DHT22;33679;51.218;6.786;2022-07-12T08:04:29;24.70;99.90
10583;DHT22;33679;51.218;6.786;2022-07-12T08:07:02;24.70;99.90
10583;DHT22;33679;51.218;6.786;2022-07-12T08:09:42;24.70;99.90
10583;DHT22;33679;51.218;6.786;2022-07-12T08:12:10;24.80;99.90
10583;DHT22;33679;51.218;6.786;2022-07-12T08:14:38;24.80;99.90
10583;DHT22;33679;51.218;6.786;2022-07-12T08:17:06;24.80;99.90
10583;DHT22;33679;51.218;6.786;2022-07-12T08:19:39;24.90;99.90
10583;DHT22;33679;51.218;6.786;2022-07-12T08:22:07;24.90;99.90
10583;DHT22;33679;51.218;6.786;2022-07-12T08:24:36;24.90;99.90
10583;DHT22;33679;51.218;6.786;2022-07-12T08:27:04;25.00;99.90
10583;DHT22;33679;51.218;6.786;2022-07-12T08:29:36;25.00;99.90
10583;DHT22;33679;51.218;6.786;2022-07-12T08:32:06;24.90;99.90
10583;DHT22;33679;51.218;6.786;2022-07-12T08:34:33;25.00;99.90
10583;DHT22;33679;51.218;6.786;2022-07-12T08:37:01;25.00;99.90
10583;DHT22;33679;51.218;6.786;2022-07-12T08:39:28;25.10;99.90
10583;DHT22;33679;51.218;6.786;2022-07-12T08:41:57;24.90;99.90
10583;DHT22;33679;51.218;6.786;2022-07-12T08:44:28;25.10;99.90
10583;DHT22;33679;51.218;6.786;2022-07-12T08:46:55;25.10;99.90
10583;DHT22;33679;51.218;6.786;2022-07-12T08:49:23;25.10;99.90
10583;DHT22;33679;51.218;6.786;2022-07-12T08:51:52;25.10;99.90
10583;DHT22;33679;51.218;6.786;2022-07-12T08:54:19;25.10;99.90
10583;DHT22;33679;51.218;6.786;2022-07-12T08:56:46;25.10;99.90
10583;DHT22;33679;51.218;6.786;2022-07-12T08:59:14;25.20;99.90
10583;DHT22;33679;51.218;6.786;2022-07-12T09:01:42;25.30;99.90
10583;DHT22;33679;51.218;6.786;2022-07-12T09:04:09;25.40;99.90
10583;DHT22;33679;51.218;6.786;2022-07-12T09:06:38;25.50;99.90
10583;DHT22;33679;51.218;6.786;2022-07-12T09:09:05;25.60;99.90
10583;DHT22;33679;51.218;6.786;2022-07-12T09:11:37;25.50;99.90
10583;DHT22;33679;51.218;6.786;2022-07-12T09:14:06;25.50;99.90
10583;DHT22;33679;51.218;6.786;2022-07-12T09:16:34;25.50;99.90
10583;DHT22;33679;51.218;6.786;2022-07-12T09:19:11;25.60;99.90
10583;DHT22;33679;51.218;6.786;2022-07-12T09:21:41;25.60;99.90
10583;DHT22;33679;51.218;6.786;2022-07-12T09:24:12;25.80;99.90
10583;DHT22;33679;51.218;6.786;2022-07-12T09:26:40;25.80;99.90
10583;DHT22;33679;51.218;6.786;2022-07-12T09:29:07;25.80;99.90
10583;DHT22;33679;51.218;6.786;2022-07-12T09:31:39;25.80;99.90
10583;DHT22;33679;51.218;6.786;2022-07-12T09:34:26;25.80;99.90
10583;DHT22;33679;51.218;6.786;2022-07-12T09:37:12;25.80;99.90
10583;DHT22;33679;51.218;6.786;2022-07-12T09:39:40;25.80;99.90
10583;DHT22;33679;51.218;6.786;2022-07-12T09:42:08;25.70;99.90
10583;DHT22;33679;51.218;6.786;2022-07-12T09:44:38;25.80;99.90
10583;DHT22;33679;51.218;6.786;2022-07-12T09:47:06;25.80;99.90
10583;DHT22;33679;51.218;6.786;2022-07-12T09:49:38;25.90;99.90
10583;DHT22;33679;51.218;6.786;2022-07-12T09:52:05;25.90;99.90
10583;DHT22;33679;51.218;6.786;2022-07-12T09:54:38;26.10;99.90
10583;DHT22;33679;51.218;6.786;2022-07-12T09:57:16;26.20;99.90
10583;DHT22;33679;51.218;6.786;2022-07-12T10:00:01;26.30;99.90
10583;DHT22;33679;51.218;6.786;2022-07-12T10:02:37;26.30;99.90
10583;DHT22;33679;51.218;6.786;2022-07-12T10:05:05;26.40;99.90
10583;DHT22;33679;51.218;6.786;2022-07-12T10:07:35;26.40;99.90
10583;DHT22;33679;51.218;6.786;2022-07-12T10:10:05;26.50;99.90
10583;DHT22;33679;51.218;6.786;2022-07-12T10:12:32;26.50;99.90
10583;DHT22;33679;51.218;6.786;2022-07-12T10:15:02;26.70;99.90
10583;DHT22;33679;51.218;6.786;2022-07-12T10:17:29;26.80;99.90
10583;DHT22;33679;51.218;6.786;2022-07-12T10:20:16;26.90;99.90
10583;DHT22;33679;51.218;6.786;2022-07-12T10:22:43;26.90;99.90
10583;DHT22;33679;51.218;6.786;2022-07-12T10:28:02;27.00;99.90
10583;DHT22;33679;51.218;6.786;2022-07-12T10:30:30;27.10;99.90
10583;DHT22;33679;51.218;6.786;2022-07-12T10:32:57;27.10;99.90
10583;DHT22;33679;51.218;6.786;2022-07-12T10:35:28;27.10;99.90
10583;DHT22;33679;51.218;6.786;2022-07-12T10:40:42;27.10;99.90
10583;DHT22;33679;51.218;6.786;2022-07-12T10:43:15;27.30;99.90
10583;DHT22;33679;51.218;6.786;2022-07-12T10:45:43;27.30;99.90
10583;DHT22;33679;51.218;6.786;2022-07-12T10:48:19;27.40;99.90
10583;DHT22;33679;51.218;6.786;2022-07-12T10:50:54;27.30;99.90
10583;DHT22;33679;51.218;6.786;2022-07-12T10:53:23;27.70;99.90
10583;DHT22;33679;51.218;6.786;2022-07-12T10:56:10;27.70;99.90
10583;DHT22;33679;51.218;6.786;2022-07-12T10:58:39;27.60;99.90
10583;DHT22;33679;51.218;6.786;2022-07-12T11:01:08;27.60;99.90
10583;DHT22;33679;51.218;6.786;2022-07-12T11:03:40;27.50;99.90
10583;DHT22;33679;51.218;6.786;2022-07-12T11:06:08;27.50;99.90
10583;DHT22;33679;51.218;6.786;2022-07-12T11:08:57;27.60;99.90
10583;DHT22;33679;51.218;6.786;2022-07-12T11:11:26;27.80;99.90
10583;DHT22;33679;51.218;6.786;2022-07-12T11:13:55;27.70;99.90
10583;DHT22;33679;51.218;6.786;2022-07-12T11:16:23;27.70;99.90
10583;DHT22;33679;51.218;6.786;2022-07-12T11:18:51;27.70;99.90
10583;DHT22;33679;51.218;6.786;2022-07-12T11:21:24;27.60;99.90
10583;DHT22;33679;51.218;6.786;2022-07-12T11:23:55;27.70;99.90
10583;DHT22;33679;51.218;6.786;2022-07-12T11:26:22;27.70;99.90
10583;DHT22;33679;51.218;6.786;2022-07-12T11:28:54;27.70;99.90
10583;DHT22;33679;51.218;6.786;2022-07-12T11:31:25;27.70;99.90
10583;DHT22;33679;51.218;6.786;2022-07-12T11:34:00;27.70;99.90
10583;DHT22;33679;51.218;6.786;2022-07-12T11:36:28;27.80;99.90
10583;DHT22;33679;51.218;6.786;2022-07-12T11:38:55;27.80;99.90
10583;DHT22;33679;51.218;6.786;2022-07-12T11:41:23;27.90;99.90
10583;DHT22;33679;51.218;6.786;2022-07-12T11:43:50;28.00;99.90
10583;DHT22;33679;51.218;6.786;2022-07-12T11:46:17;28.00;99.90
10583;DHT22;33679;51.218;6.786;2022-07-12T11:48:48;28.10;99.90
10583;DHT22;33679;51.218;6.786;2022-07-12T11:51:16;28.30;99.90
10583;DHT22;33679;51.218;6.786;2022-07-12T11:53:43;28.50;99.90
10583;DHT22;33679;51.218;6.786;2022-07-12T11:56:10;28.40;99.90
10583;DHT22;33679;51.218;6.786;2022-07-12T11:58:38;28.40;99.90
10583;DHT22;33679;51.218;6.786;2022-07-12T12:01:09;28.40;99.90
10583;DHT22;33679;51.218;6.786;2022-07-12T12:03:43;28.40;99.90
10583;DHT22;33679;51.218;6.786;2022-07-12T12:06:13;28.50;99.90
10583;DHT22;33679;51.218;6.786;2022-07-12T12:08:41;28.70;99.90
10583;DHT22;33679;51.218;6.786;2022-07-12T12:11:10;28.70;99.90
10583;DHT22;33679;51.218;6.786;2022-07-12T12:13:43;28.80;99.90
10583;DHT22;33679;51.218;6.786;2022-07-12T12:16:23;28.80;99.90
10583;DHT22;33679;51.218;6.786;2022-07-12T12:18:50;28.90;99.90
10583;DHT22;33679;51.218;6.786;2022-07-12T12:21:19;28.90;99.90
10583;DHT22;33679;51.218;6.786;2022-07-12T12:23:54;28.90;99.90
10583;DHT22;33679;51.218;6.786;2022-07-12T12:26:34;28.90;99.90
10583;DHT22;33679;51.218;6.786;2022-07-12T12:29:02;29.00;99.80
10583;DHT22;33679;51.218;6.786;2022-07-12T12:31:29;29.00;99.90
10583;DHT22;33679;51.218;6.786;2022-07-12T12:33:56;29.00;99.90
10583;DHT22;33679;51.218;6.786;2022-07-12T12:36:26;29.10;99.80
10583;DHT22;33679;51.218;6.786;2022-07-12T12:38:56;29.20;99.70
10583;DHT22;33679;51.218;6.786;2022-07-12T12:41:27;29.30;99.00
10583;DHT22;33679;51.218;6.786;2022-07-12T12:43:58;29.40;98.70
10583;DHT22;33679;51.218;6.786;2022-07-12T12:46:45;29.40;98.90
10583;DHT22;33679;51.218;6.786;2022-07-12T12:49:12;29.40;99.00
10583;DHT22;33679;51.218;6.786;2022-07-12T12:51:54;29.40;98.90
10583;DHT22;33679;51.218;6.786;2022-07-12T12:54:32;29.40;98.40
10583;DHT22;33679;51.218;6.786;2022-07-12T12:56:59;29.50;98.60
10583;DHT22;33679;51.218;6.786;2022-07-12T12:59:26;29.50;98.30
10583;DHT22;33679;51.218;6.786;2022-07-12T13:01:54;29.60;97.90
10583;DHT22;33679;51.218;6.786;2022-07-12T13:04:21;29.60;97.80
10583;DHT22;33679;51.218;6.786;2022-07-12T13:06:48;29.60;97.90
10583;DHT22;33679;51.218;6.786;2022-07-12T13:09:19;29.70;97.30
10583;DHT22;33679;51.218;6.786;2022-07-12T13:11:48;29.70;97.20
10583;DHT22;33679;51.218;6.786;2022-07-12T13:14:15;29.70;97.10
10583;DHT22;33679;51.218;6.786;2022-07-12T13:16:46;29.90;96.80
10583;DHT22;33679;51.218;6.786;2022-07-12T13:19:14;29.80;97.00
10583;DHT22;33679;51.218;6.786;2022-07-12T13:21:41;30.00;97.00
10583;DHT22;33679;51.218;6.786;2022-07-12T13:24:08;30.10;96.60
10583;DHT22;33679;51.218;6.786;2022-07-12T13:26:38;30.10;96.60
10583;DHT22;33679;51.218;6.786;2022-07-12T13:29:05;30.00;96.90
10583;DHT22;33679;51.218;6.786;2022-07-12T13:31:33;30.00;96.70
10583;DHT22;33679;51.218;6.786;2022-07-12T13:34:00;30.10;96.30
10583;DHT22;33679;51.218;6.786;2022-07-12T13:36:27;30.10;96.50
10583;DHT22;33679;51.218;6.786;2022-07-12T13:38:54;30.10;96.10
10583;DHT22;33679;51.218;6.786;2022-07-12T13:41:43;30.30;95.80
10583;DHT22;33679;51.218;6.786;2022-07-12T13:44:12;30.30;95.20
10583;DHT22;33679;51.218;6.786;2022-07-12T13:47:21;30.30;95.40
10583;DHT22;33679;51.218;6.786;2022-07-12T13:49:50;30.40;95.20
10583;DHT22;33679;51.218;6.786;2022-07-12T13:52:18;30.40;94.60
10583;DHT22;33679;51.218;6.786;2022-07-12T13:54:51;30.50;93.70
10583;DHT22;33679;51.218;6.786;2022-07-12T13:57:25;30.60;94.50
10583;DHT22;33679;51.218;6.786;2022-07-12T13:59:53;30.80;93.90
10583;DHT22;33679;51.218;6.786;2022-07-12T14:02:22;30.80;93.50
10583;DHT22;33679;51.218;6.786;2022-07-12T14:04:56;30.70;92.80
10583;DHT22;33679;51.218;6.786;2022-07-12T14:07:24;30.70;93.40
10583;DHT22;33679;51.218;6.786;2022-07-12T14:09:54;30.70;93.60
10583;DHT22;33679;51.218;6.786;2022-07-12T14:12:22;30.60;93.60
10583;DHT22;33679;51.218;6.786;2022-07-12T14:14:50;30.70;93.50
10583;DHT22;33679;51.218;6.786;2022-07-12T14:17:45;30.70;93.60
10583;DHT22;33679;51.218;6.786;2022-07-12T14:20:13;30.80;93.80
10583;DHT22;33679;51.218;6.786;2022-07-12T14:22:41;30.70;94.10
10583;DHT22;33679;51.218;6.786;2022-07-12T14:25:08;30.80;93.70
10583;DHT22;33679;51.218;6.786;2022-07-12T14:27:36;30.80;93.50
10583;DHT22;33679;51.218;6.786;2022-07-12T14:30:05;30.80;93.50
10583;DHT22;33679;51.218;6.786;2022-07-12T14:32:33;30.80;93.50
10583;DHT22;33679;51.218;6.786;2022-07-12T14:35:01;30.80;93.60
10583;DHT22;33679;51.218;6.786;2022-07-12T14:37:28;30.80;93.10
10583;DHT22;33679;51.218;6.786;2022-07-12T14:39:55;30.80;93.00
10583;DHT22;33679;51.218;6.786;2022-07-12T14:42:22;30.90;93.20
10583;DHT22;33679;51.218;6.786;2022-07-12T14:44:49;30.90;93.00
10583;DHT22;33679;51.218;6.786;2022-07-12T14:47:21;31.00;93.20
10583;DHT22;33679;51.218;6.786;2022-07-12T14:49:48;31.40;92.30
10583;DHT22;33679;51.218;6.786;2022-07-12T14:52:15;31.40;92.50
10583;DHT22;33679;51.218;6.786;2022-07-12T14:54:42;31.20;92.60
10583;DHT22;33679;51.218;6.786;2022-07-12T14:57:10;31.30;92.30
10583;DHT22;33679;51.218;6.786;2022-07-12T14:59:37;31.40;92.30
10583;DHT22;33679;51.218;6.786;2022-07-12T15:02:04;31.40;92.10
10583;DHT22;33679;51.218;6.786;2022-07-12T15:04:33;31.30;92.40
10583;DHT22;33679;51.218;6.786;2022-07-12T15:07:00;31.30;92.60
10583;DHT22;33679;51.218;6.786;2022-07-12T15:09:28;31.60;92.10
10583;DHT22;33679;51.218;6.786;2022-07-12T15:11:55;31.50;92.20
10583;DHT22;33679;51.218;6.786;2022-07-12T15:14:22;31.40;92.40
10583;DHT22;33679;51.218;6.786;2022-07-12T15:16:51;31.50;92.20
10583;DHT22;33679;51.218;6.786;2022-07-12T15:19:19;31.70;91.90
10583;DHT22;33679;51.218;6.786;2022-07-12T15:21:47;31.50;92.20
10583;DHT22;33679;51.218;6.786;2022-07-12T15:24:14;31.60;92.00
10583;DHT22;33679;51.218;6.786;2022-07-12T15:26:42;31.40;92.30
10583;DHT22;33679;51.218;6.786;2022-07-12T15:29:09;31.40;92.30
10583;DHT22;33679;51.218;6.786;2022-07-12T15:31:36;31.50;92.10
10583;DHT22;33679;51.218;6.786;2022-07-12T15:34:03;31.40;92.30
10583;DHT22;33679;51.218;6.786;2022-07-12T15:36:32;31.40;92.50
10583;DHT22;33679;51.218;6.786;2022-07-12T15:39:01;31.40;92.50
10583;DHT22;33679;51.218;6.786;2022-07-12T15:41:28;31.50;92.20
10583;DHT22;33679;51.218;6.786;2022-07-12T15:43:55;31.50;92.20
10583;DHT22;33679;51.218;6.786;2022-07-12T15:46:23;31.40;92.20